Rm Thomas — FNMP — position and weather

sailwx.info

Track history (hours):
 
Tides and Currents Weather Stations Pressure Air Temp Water Temp Dewpoint Dewpoint Depression Visibility Wind Speed Wind Dir Waves Ship Positions

Rm Thomas

Last reported at 2014-Oct-31 10:26 UTC. Time now 2014-Oct-31 20:51 UTC.
Position N 45°13' W 000°45'.

Length 25 m; draft 4 m.

Type: Tug. MMSI: 228278700.

Date/timePositionNaut miles runAvg speedWind from/ knotsBaromVisibWave heightAir tempDewpointWater temp
2014-Oct-31 10:26N 45°13' W 000°45'0 0.6
2014-Oct-31 09:33N 45°14' W 000°45'0 0.0
2014-Oct-31 08:33N 45°14' W 000°45'1 1.0
2014-Oct-31 07:33N 45°15' W 000°45'4 3.6
2014-Oct-31 06:34N 45°11' W 000°43'7 7.4
2014-Oct-31 05:33N 45°04' W 000°39'9 9.0
2014-Oct-31 04:33N 44°56' W 000°33'3 3.2
2014-Oct-31 03:34N 44°53' W 000°32'0 0.0
2014-Oct-31 02:34N 44°53' W 000°32'0 0.0
2014-Oct-31 01:33N 44°53' W 000°32'0 0.0
2014-Oct-31 00:33N 44°53' W 000°32'0 0.0
2014-Oct-30 23:30N 44°53' W 000°32'0 0.0
2014-Oct-30 22:31N 44°53' W 000°32'0 0.0
2014-Oct-30 21:32N 44°53' W 000°32'0 0.0
2014-Oct-30 11:14N 44°53' W 000°32'0 0.0
2014-Oct-30 10:31N 44°53' W 000°32'0 0.0
2014-Oct-30 09:34N 44°53' W 000°32'0 0.0
2014-Oct-30 08:34N 44°53' W 000°32'0 0.0
2014-Oct-30 07:33N 44°53' W 000°32'0 0.0
2014-Oct-30 06:33N 44°53' W 000°32'0 0.0
2014-Oct-30 05:30N 44°53' W 000°32'0 0.0
2014-Oct-30 04:29N 44°53' W 000°32'0 0.0
2014-Oct-30 03:05N 44°53' W 000°32'0 0.0
2014-Oct-30 02:16N 44°53' W 000°32'0 0.0
2014-Oct-30 01:18N 44°53' W 000°32'0 0.0
2014-Oct-30 00:26N 44°53' W 000°32'0 0.0
2014-Oct-29 23:33N 44°53' W 000°32'0 0.0
2014-Oct-29 22:31N 44°53' W 000°32'13 0.3
2014-Oct-28 06:07N 45°05' W 000°40'6 0.3
2014-Oct-27 10:19N 45°11' W 000°43'1011.6
2014-Oct-27 09:29N 45°02' W 000°36'3 2.9
2014-Oct-27 08:32N 45°00' W 000°34'2 1.4
2014-Oct-27 07:20N 45°01' W 000°36'5 4.2
2014-Oct-27 06:13N 44°57' W 000°33'4 2.1
2014-Oct-27 04:24N 44°53' W 000°32'0 0.0
2014-Oct-25 09:33N 44°53' W 000°32'0 0.0
2014-Oct-25 08:31N 44°53' W 000°32'0 0.0
2014-Oct-25 07:29N 44°53' W 000°32'2 2.5
2014-Oct-25 06:33N 44°55' W 000°33'5 5.0
2014-Oct-25 05:34N 45°00' W 000°34'4 3.8
2014-Oct-25 04:33N 44°57' W 000°33'3 3.5
2014-Oct-25 03:33N 44°53' W 000°32'0 0.0
2014-Oct-25 02:30N 44°53' W 000°32'0 0.0
2014-Oct-25 01:31N 44°53' W 000°32'0 0.0
2014-Oct-25 00:31N 44°53' W 000°32'0 0.0
2014-Oct-24 23:12N 44°53' W 000°32'0 0.0
2014-Oct-24 22:33N 44°53' W 000°32'0 0.0
2014-Oct-24 21:34N 44°53' W 000°32'0 0.0
2014-Oct-24 11:14N 44°53' W 000°32'0 0.0
2014-Oct-24 10:31N 44°53' W 000°32'0 0.0
2014-Oct-24 08:33N 44°53' W 000°32'0 0.0
2014-Oct-24 07:33N 44°53' W 000°32'4 4.1
2014-Oct-24 06:33N 44°57' W 000°33'3 2.6
2014-Oct-24 05:33N 44°60' W 000°33'0 0.5
2014-Oct-24 04:33N 45°00' W 000°34'0 0.0
2014-Oct-23 07:29N 45°00' W 000°34'0 0.0
2014-Oct-23 06:30N 45°00' W 000°34'0 0.3
2014-Oct-23 05:29N 45°00' W 000°34'1 1.3
2014-Oct-23 04:33N 45°01' W 000°35'  
Track history (hours):
 
Tides and Currents Weather Stations Pressure Air Temp Water Temp Dewpoint Dewpoint Depression Visibility Wind Speed Wind Dir Waves Ship Positions

Rm Thomas

Last reported at 2014-Oct-31 10:26 UTC. Time now 2014-Oct-31 20:51 UTC.
Position N 45°13' W 000°45'.

Length 25 m; draft 4 m.

Type: Tug. MMSI: 228278700.

Date/timePositionNaut miles runAvg speedWind from/ knotsBaromVisibWave heightAir tempDewpointWater temp
2014-Oct-31 10:26N 45°13' W 000°45'0 0.6
2014-Oct-31 09:33N 45°14' W 000°45'0 0.0
2014-Oct-31 08:33N 45°14' W 000°45'1 1.0
2014-Oct-31 07:33N 45°15' W 000°45'4 3.6
2014-Oct-31 06:34N 45°11' W 000°43'7 7.4
2014-Oct-31 05:33N 45°04' W 000°39'9 9.0
2014-Oct-31 04:33N 44°56' W 000°33'3 3.2
2014-Oct-31 03:34N 44°53' W 000°32'0 0.0
2014-Oct-31 02:34N 44°53' W 000°32'0 0.0
2014-Oct-31 01:33N 44°53' W 000°32'0 0.0
2014-Oct-31 00:33N 44°53' W 000°32'0 0.0
2014-Oct-30 23:30N 44°53' W 000°32'0 0.0
2014-Oct-30 22:31N 44°53' W 000°32'0 0.0
2014-Oct-30 21:32N 44°53' W 000°32'0 0.0
2014-Oct-30 11:14N 44°53' W 000°32'0 0.0
2014-Oct-30 10:31N 44°53' W 000°32'0 0.0
2014-Oct-30 09:34N 44°53' W 000°32'0 0.0
2014-Oct-30 08:34N 44°53' W 000°32'0 0.0
2014-Oct-30 07:33N 44°53' W 000°32'0 0.0
2014-Oct-30 06:33N 44°53' W 000°32'0 0.0
2014-Oct-30 05:30N 44°53' W 000°32'0 0.0
2014-Oct-30 04:29N 44°53' W 000°32'0 0.0
2014-Oct-30 03:05N 44°53' W 000°32'0 0.0
2014-Oct-30 02:16N 44°53' W 000°32'0 0.0
2014-Oct-30 01:18N 44°53' W 000°32'0 0.0
2014-Oct-30 00:26N 44°53' W 000°32'0 0.0
2014-Oct-29 23:33N 44°53' W 000°32'0 0.0
2014-Oct-29 22:31N 44°53' W 000°32'13 0.3
2014-Oct-28 06:07N 45°05' W 000°40'6 0.3
2014-Oct-27 10:19N 45°11' W 000°43'1011.6
2014-Oct-27 09:29N 45°02' W 000°36'3 2.9
2014-Oct-27 08:32N 45°00' W 000°34'2 1.4
2014-Oct-27 07:20N 45°01' W 000°36'5 4.2
2014-Oct-27 06:13N 44°57' W 000°33'4 2.1
2014-Oct-27 04:24N 44°53' W 000°32'0 0.0
2014-Oct-25 09:33N 44°53' W 000°32'0 0.0
2014-Oct-25 08:31N 44°53' W 000°32'0 0.0
2014-Oct-25 07:29N 44°53' W 000°32'2 2.5
2014-Oct-25 06:33N 44°55' W 000°33'5 5.0
2014-Oct-25 05:34N 45°00' W 000°34'4 3.8
2014-Oct-25 04:33N 44°57' W 000°33'3 3.5
2014-Oct-25 03:33N 44°53' W 000°32'0 0.0
2014-Oct-25 02:30N 44°53' W 000°32'0 0.0
2014-Oct-25 01:31N 44°53' W 000°32'0 0.0
2014-Oct-25 00:31N 44°53' W 000°32'0 0.0
2014-Oct-24 23:12N 44°53' W 000°32'0 0.0
2014-Oct-24 22:33N 44°53' W 000°32'0 0.0
2014-Oct-24 21:34N 44°53' W 000°32'0 0.0
2014-Oct-24 11:14N 44°53' W 000°32'0 0.0
2014-Oct-24 10:31N 44°53' W 000°32'0 0.0
2014-Oct-24 08:33N 44°53' W 000°32'0 0.0
2014-Oct-24 07:33N 44°53' W 000°32'4 4.1
2014-Oct-24 06:33N 44°57' W 000°33'3 2.6
2014-Oct-24 05:33N 44°60' W 000°33'0 0.5
2014-Oct-24 04:33N 45°00' W 000°34'0 0.0
2014-Oct-23 07:29N 45°00' W 000°34'0 0.0
2014-Oct-23 06:30N 45°00' W 000°34'0 0.3
2014-Oct-23 05:29N 45°00' W 000°34'1 1.3
2014-Oct-23 04:33N 45°01' W 000°35'  

Dump ship's entire track history